MV Nord Discovery — 3EGP — position and weather

sailwx.info

Track history (hours):
 
Tides and Currents Weather Stations Pressure Air Temp Water Temp Dewpoint Dewpoint Depression Visibility Wind Speed Wind Dir Waves Ship Positions

MV Nord Discovery

Last reported at 2017-Mar-28 00:32 UTC. Time now 2017-Mar-28 00:34 UTC.
Position N 22°35' E 120°18'.

Length 183 m; draft 6.6 m.

Type: Cargo ship. MMSI: 354855000.

Date/timePositionNaut miles runAvg speedWind from/ knotsBaromVisibWave heightAir tempDewpointWater temp
2017-Mar-28 00:32N 22°35' E 120°18'0 0.0
2017-Mar-27 23:26N 22°35' E 120°18'0 0.0
2017-Mar-27 22:32N 22°35' E 120°18'0 0.0
2017-Mar-27 21:32N 22°35' E 120°18'0 0.1
2017-Mar-27 20:32N 22°35' E 120°18'0 0.1
2017-Mar-27 19:32N 22°35' E 120°18'0 0.0
2017-Mar-27 18:20N 22°35' E 120°18'0 0.0
2017-Mar-27 17:32N 22°35' E 120°18'0 0.0
2017-Mar-27 16:31N 22°35' E 120°18'0 0.0
2017-Mar-27 15:26N 22°35' E 120°18'0 0.0
2017-Mar-27 14:32N 22°35' E 120°18'0 0.0
2017-Mar-27 13:29N 22°35' E 120°18'0 0.0
2017-Mar-27 12:31N 22°35' E 120°18'0 0.0
2017-Mar-27 11:31N 22°35' E 120°18'0 0.0
2017-Mar-27 10:31N 22°35' E 120°18'0 0.0
2017-Mar-27 09:31N 22°35' E 120°18'0 0.0
2017-Mar-27 08:31N 22°35' E 120°18'0 0.0
2017-Mar-27 07:31N 22°35' E 120°18'0 0.1
2017-Mar-27 06:28N 22°35' E 120°18'0 0.1
2017-Mar-27 05:31N 22°35' E 120°18'0 0.0
2017-Mar-27 04:31N 22°35' E 120°18'0 0.1
2017-Mar-27 03:31N 22°35' E 120°18'0 0.0
2017-Mar-27 02:31N 22°35' E 120°18'0 0.0
2017-Mar-27 01:33N 22°35' E 120°18'0 0.1
2017-Mar-27 00:33N 22°35' E 120°18'0 0.0
2017-Mar-26 23:33N 22°35' E 120°18'0 0.0
2017-Mar-26 22:33N 22°35' E 120°18'0 0.1
2017-Mar-26 21:33N 22°35' E 120°18'0 0.1
2017-Mar-26 20:33N 22°35' E 120°18'0 0.1
2017-Mar-26 19:33N 22°35' E 120°18'0 0.1
2017-Mar-26 18:33N 22°35' E 120°18'0 0.0
2017-Mar-26 17:34N 22°35' E 120°18'0 0.0
2017-Mar-26 16:33N 22°35' E 120°18'0 0.0
2017-Mar-26 15:33N 22°35' E 120°18'0 0.0
2017-Mar-26 14:33N 22°35' E 120°18'0 0.0
2017-Mar-26 13:33N 22°35' E 120°18'0 0.0
2017-Mar-26 12:33N 22°35' E 120°18'0 0.0
2017-Mar-26 11:33N 22°35' E 120°18'0 0.0
2017-Mar-26 10:33N 22°35' E 120°18'0 0.0
2017-Mar-26 09:33N 22°35' E 120°18'0 0.0
2017-Mar-26 08:33N 22°35' E 120°18'0 0.0
2017-Mar-26 07:33N 22°35' E 120°18'0 0.0
2017-Mar-26 06:33N 22°35' E 120°18'0 0.0
2017-Mar-26 05:33N 22°35' E 120°18'0 0.0
2017-Mar-26 04:33N 22°35' E 120°18'0 0.0
2017-Mar-26 03:33N 22°35' E 120°18'0 0.0
2017-Mar-26 02:33N 22°35' E 120°18'0 0.0
2017-Mar-26 01:33N 22°35' E 120°18'2 2.0
2017-Mar-26 00:33N 22°37' E 120°16'3 2.6
2017-Mar-25 23:32N 22°37' E 120°13'0 0.3
2017-Mar-25 22:32N 22°37' E 120°13'0 0.0
2017-Mar-25 21:32N 22°37' E 120°13'0 0.1
2017-Mar-25 20:32N 22°37' E 120°13'0 0.1
2017-Mar-25 19:32N 22°37' E 120°13'0 0.0
2017-Mar-25 18:32N 22°37' E 120°13'0 0.1
2017-Mar-25 17:32N 22°37' E 120°13'0 0.1
2017-Mar-25 16:32N 22°37' E 120°13'0 0.1
2017-Mar-25 15:33N 22°37' E 120°13'0 0.1
2017-Mar-25 14:33N 22°37' E 120°13'5 5.4
2017-Mar-25 13:34N 22°40' E 120°09'  
Track history (hours):
 
Tides and Currents Weather Stations Pressure Air Temp Water Temp Dewpoint Dewpoint Depression Visibility Wind Speed Wind Dir Waves Ship Positions

MV Nord Discovery

Last reported at 2017-Mar-28 00:32 UTC. Time now 2017-Mar-28 00:34 UTC.
Position N 22°35' E 120°18'.

Length 183 m; draft 6.6 m.

Type: Cargo ship. MMSI: 354855000.

Date/timePositionNaut miles runAvg speedWind from/ knotsBaromVisibWave heightAir tempDewpointWater temp
2017-Mar-28 00:32N 22°35' E 120°18'0 0.0
2017-Mar-27 23:26N 22°35' E 120°18'0 0.0
2017-Mar-27 22:32N 22°35' E 120°18'0 0.0
2017-Mar-27 21:32N 22°35' E 120°18'0 0.1
2017-Mar-27 20:32N 22°35' E 120°18'0 0.1
2017-Mar-27 19:32N 22°35' E 120°18'0 0.0
2017-Mar-27 18:20N 22°35' E 120°18'0 0.0
2017-Mar-27 17:32N 22°35' E 120°18'0 0.0
2017-Mar-27 16:31N 22°35' E 120°18'0 0.0
2017-Mar-27 15:26N 22°35' E 120°18'0 0.0
2017-Mar-27 14:32N 22°35' E 120°18'0 0.0
2017-Mar-27 13:29N 22°35' E 120°18'0 0.0
2017-Mar-27 12:31N 22°35' E 120°18'0 0.0
2017-Mar-27 11:31N 22°35' E 120°18'0 0.0
2017-Mar-27 10:31N 22°35' E 120°18'0 0.0
2017-Mar-27 09:31N 22°35' E 120°18'0 0.0
2017-Mar-27 08:31N 22°35' E 120°18'0 0.0
2017-Mar-27 07:31N 22°35' E 120°18'0 0.1
2017-Mar-27 06:28N 22°35' E 120°18'0 0.1
2017-Mar-27 05:31N 22°35' E 120°18'0 0.0
2017-Mar-27 04:31N 22°35' E 120°18'0 0.1
2017-Mar-27 03:31N 22°35' E 120°18'0 0.0
2017-Mar-27 02:31N 22°35' E 120°18'0 0.0
2017-Mar-27 01:33N 22°35' E 120°18'0 0.1
2017-Mar-27 00:33N 22°35' E 120°18'0 0.0
2017-Mar-26 23:33N 22°35' E 120°18'0 0.0
2017-Mar-26 22:33N 22°35' E 120°18'0 0.1
2017-Mar-26 21:33N 22°35' E 120°18'0 0.1
2017-Mar-26 20:33N 22°35' E 120°18'0 0.1
2017-Mar-26 19:33N 22°35' E 120°18'0 0.1
2017-Mar-26 18:33N 22°35' E 120°18'0 0.0
2017-Mar-26 17:34N 22°35' E 120°18'0 0.0
2017-Mar-26 16:33N 22°35' E 120°18'0 0.0
2017-Mar-26 15:33N 22°35' E 120°18'0 0.0
2017-Mar-26 14:33N 22°35' E 120°18'0 0.0
2017-Mar-26 13:33N 22°35' E 120°18'0 0.0
2017-Mar-26 12:33N 22°35' E 120°18'0 0.0
2017-Mar-26 11:33N 22°35' E 120°18'0 0.0
2017-Mar-26 10:33N 22°35' E 120°18'0 0.0
2017-Mar-26 09:33N 22°35' E 120°18'0 0.0
2017-Mar-26 08:33N 22°35' E 120°18'0 0.0
2017-Mar-26 07:33N 22°35' E 120°18'0 0.0
2017-Mar-26 06:33N 22°35' E 120°18'0 0.0
2017-Mar-26 05:33N 22°35' E 120°18'0 0.0
2017-Mar-26 04:33N 22°35' E 120°18'0 0.0
2017-Mar-26 03:33N 22°35' E 120°18'0 0.0
2017-Mar-26 02:33N 22°35' E 120°18'0 0.0
2017-Mar-26 01:33N 22°35' E 120°18'2 2.0
2017-Mar-26 00:33N 22°37' E 120°16'3 2.6
2017-Mar-25 23:32N 22°37' E 120°13'0 0.3
2017-Mar-25 22:32N 22°37' E 120°13'0 0.0
2017-Mar-25 21:32N 22°37' E 120°13'0 0.1
2017-Mar-25 20:32N 22°37' E 120°13'0 0.1
2017-Mar-25 19:32N 22°37' E 120°13'0 0.0
2017-Mar-25 18:32N 22°37' E 120°13'0 0.1
2017-Mar-25 17:32N 22°37' E 120°13'0 0.1
2017-Mar-25 16:32N 22°37' E 120°13'0 0.1
2017-Mar-25 15:33N 22°37' E 120°13'0 0.1
2017-Mar-25 14:33N 22°37' E 120°13'5 5.4
2017-Mar-25 13:34N 22°40' E 120°09'  

Dump ship's entire track history